Strona główna
METAR-TAF:

METAR-TAF

Lotnisko :

Port lotniczy Çanakkale

Çanakkale, Turcja

Szerokość geograficzna: 40-08N, Długość geograficzna: 026-24E, wysokość: 3 m

Aktualna obserwacja pogody

Raport powstał 36 minut temu, godzina 04:50 UTC
Wiatr 8 kt od północno-północny wschód, zmienny między północno-północny zachód i północny wschód
Temperatura 23°C
Wilgotność 73%
Ciśnienie 1013 hPa
Widzialność 10 km lub więcej
Brak chmur poniżej 1500 m i brak chmur cumulonimbus

METAR: LTBH 230450Z 02008KT 340V050 CAVOK 23/18 Q1013

czas: 08:26 (05:26 UTC)

Prognoza

Raport powstał 3 godziny i 46 minut temu, godzina 01:40 UTC
Prognoza ważna od 23 godzina 03 UTC do 23 godzina 12 UTC
Wiatr 8 kt od północny wschód
Widzialność 10 km lub więcej
Rozproszone chmury na wysokości 3500 ft
Stopniowe zmiany
od 23 godzina 06 UTC do 23 godzina 09 UTC
Widzialność 10 km lub więcej
Brak chmur poniżej 1500 m i brak chmur cumulonimbus

TAF: LTBH 230140Z 2303/2312 04008KT 9999 SCT035 BECMG 2306/2309 CAVOK

Obserwacja i prognoza pogody dla ponad 4000 lotnisk (raport METAR i TAF).

Dostępne stacje oznaczono żółtymi i czerwonymi punktami na mapie.

Najedź kursorem aby zobaczyć nazwę stacji.

Kliknij aby zobaczyć obserwacje i prognozy pogody.

Aby zmienić mapę: kliknij na zielony przycisk z czarnym krzyżykiem, aby powiększyć; na zielony przycisk z myślnikiem, aby pomniejszyć; na zielone strzałki, aby przejść do map sąsiednich.


METAR-TAF: